Time;durP1;ratioP1;P1;durP2;ratioP2;P2;SDS_P1;SDS_P2;PMS_P1;PMS_P2;Temp;Humidity;BMP_temperature;BMP_pressure;BME280_temperature;BME280_humidity;BME280_pressure;Samples;Min_cycle;Max_cycle;Signal;HPM_P1;HPM_P2
2024/04/26 00:00:01;;;;;;;4.40;4.00;;;;;;;9.24;83.55;92817.06;565163;26;822;-73
2024/04/26 00:00:16;;;;;;;4.75;4.22;;;;;;;9.26;83.56;92813.75;565101;26;955;-73
2024/04/26 00:00:32;;;;;;;4.87;4.37;;;;;;;9.26;83.35;92814.47;564924;26;948;-73
2024/04/26 00:00:47;;;;;;;4.43;4.03;;;;;;;9.27;83.23;92815.22;565089;26;802;-73
2024/04/26 00:01:03;;;;;;;4.77;4.23;;;;;;;9.28;83.03;92813.91;565511;26;821;-73
2024/04/26 00:01:18;;;;;;;4.90;4.40;;;;;;;9.27;82.91;92812.47;569133;26;846;-73
2024/04/26 00:01:33;;;;;;;4.90;4.40;;;;;;;9.27;82.72;92815.22;569060;26;897;-73
2024/04/26 00:01:51;;;;;;;5.40;4.90;;;;;;;9.27;82.75;92809.72;569043;26;777;-73
2024/04/26 00:02:06;;;;;;;5.35;4.85;;;;;;;9.26;82.49;92817.22;568937;26;1841;-73
2024/04/26 00:02:22;;;;;;;4.90;4.40;;;;;;;9.25;82.54;92821.25;569100;26;770;-73
2024/04/26 00:02:38;;;;;;;4.70;4.30;;;;;;;9.22;82.64;92816.88;568994;26;846;-73
2024/04/26 00:02:53;;;;;;;5.10;4.55;;;;;;;9.23;82.58;92818.34;569059;26;813;-73
2024/04/26 00:03:10;;;;;;;6.30;5.07;;;;;;;9.24;82.86;92819.06;564905;26;1133;-73
2024/04/26 00:03:25;;;;;;;5.43;4.82;;;;;;;9.22;82.66;92825.16;564917;26;1067;-73
2024/04/26 00:03:41;;;;;;;4.70;4.30;;;;;;;9.13;82.48;92804.41;565129;26;786;-73
2024/04/26 00:03:57;;;;;;;4.63;4.22;;;;;;;9.20;82.72;92824.22;565033;26;917;-73
2024/04/26 00:04:12;;;;;;;5.00;4.50;;;;;;;9.20;82.71;92824.22;565109;26;795;-73
2024/04/26 00:04:27;;;;;;;5.03;4.53;;;;;;;9.21;82.50;92825.69;565079;26;802;-73
2024/04/26 00:04:43;;;;;;;5.13;4.63;;;;;;;9.22;82.62;92818.91;564894;26;900;-73
2024/04/26 00:04:59;;;;;;;5.13;4.63;;;;;;;9.21;82.63;92818.16;566019;26;1386;-73
2024/04/26 00:05:14;;;;;;;4.95;4.45;;;;;;;9.22;82.73;92818.91;569078;26;794;-73
2024/04/26 00:05:30;;;;;;;5.20;4.70;;;;;;;9.23;82.42;92825.84;569224;26;842;-73
2024/04/26 00:05:46;;;;;;;5.60;5.10;;;;;;;9.23;82.47;92821.09;569099;26;916;-73
2024/04/26 00:06:05;;;;;;;5.20;4.70;;;;;;;9.24;82.43;92822.56;568947;26;825;-73
2024/04/26 00:06:20;;;;;;;4.93;4.43;;;;;;;9.06;82.32;92794.16;569113;26;888;-73
2024/04/26 00:06:45;;;;;;;5.43;4.30;;;;;;;9.24;82.54;92821.81;569039;26;785;-73
2024/04/26 00:07:00;;;;;;;6.30;4.38;;;;;;;9.18;82.27;92810.28;569038;26;826;-73
2024/04/26 00:07:16;;;;;;;5.55;4.30;;;;;;;9.20;82.08;92813.94;569133;26;876;-73
2024/04/26 00:07:31;;;;;;;5.00;4.50;;;;;;;9.20;82.06;92830.47;569055;26;782;-73
2024/04/26 00:07:46;;;;;;;5.15;4.60;;;;;;;9.20;82.27;92824.22;569111;26;908;-72
2024/04/26 00:08:02;;;;;;;5.53;4.80;;;;;;;9.19;82.20;92831.75;569057;26;830;-72
2024/04/26 00:08:19;;;;;;;5.90;5.03;;;;;;;9.20;82.23;92826.97;569098;26;814;-73
2024/04/26 00:08:34;;;;;;;6.15;5.25;;;;;;;9.21;82.20;92825.69;568996;26;947;-73
2024/04/26 00:08:50;;;;;;;6.60;5.45;;;;;;;9.22;82.49;92830.66;569073;26;865;-73
2024/04/26 00:09:05;;;;;;;5.90;5.00;;;;;;;9.23;82.19;92817.59;568970;26;885;-72
2024/04/26 00:09:21;;;;;;;5.30;4.78;;;;;;;9.23;82.15;92817.59;569084;26;888;-73
2024/04/26 00:09:36;;;;;;;5.07;4.55;;;;;;;9.24;82.29;92830.84;569067;26;818;-73
2024/04/26 00:09:52;;;;;;;5.83;4.80;;;;;;;9.23;82.33;92818.34;569035;26;841;-72
2024/04/26 00:10:07;;;;;;;6.27;5.03;;;;;;;9.25;82.22;92829.53;569106;26;814;-73
2024/04/26 00:10:23;;;;;;;5.72;4.65;;;;;;;9.27;82.37;92815.22;568998;26;969;-73
2024/04/26 00:10:38;;;;;;;5.03;4.50;;;;;;;9.26;82.32;92822.75;569152;26;790;-73
2024/04/26 00:10:53;;;;;;;5.25;4.68;;;;;;;9.26;82.21;92822.75;569034;26;963;-73
2024/04/26 00:11:09;;;;;;;5.57;5.07;;;;;;;9.26;82.09;92816.50;569012;26;833;-73
2024/04/26 00:11:25;;;;;;;5.63;5.13;;;;;;;9.28;81.84;92822.19;568999;26;846;-73
2024/04/26 00:11:40;;;;;;;5.37;4.87;;;;;;;9.27;82.00;92818.69;568940;26;931;-73
2024/04/26 00:11:56;;;;;;;5.20;4.70;;;;;;;9.28;81.70;92819.44;568948;26;845;-73
2024/04/26 00:12:14;;;;;;;5.50;4.80;;;;;;;9.08;81.89;92790.84;569119;26;900;-73
2024/04/26 00:12:30;;;;;;;5.80;4.82;;;;;;;9.29;81.68;92821.63;569075;26;892;-73
2024/04/26 00:12:45;;;;;;;6.03;5.13;;;;;;;9.31;81.94;92821.06;569077;26;912;-73
2024/04/26 00:13:02;;;;;;;6.67;5.23;;;;;;;9.31;82.06;92818.31;569006;26;821;-73
2024/04/26 00:13:17;;;;;;;7.30;5.47;;;;;;;9.32;81.93;92823.28;569142;26;845;-73
2024/04/26 00:13:33;;;;;;;6.75;5.82;;;;;;;9.32;82.18;92820.50;569159;26;802;-73
2024/04/26 00:13:48;;;;;;;6.40;5.75;;;;;;;9.32;82.19;92817.75;569129;26;869;-72
2024/04/26 00:14:04;;;;;;;5.97;5.37;;;;;;;9.33;81.96;92822.00;569051;26;790;-73
2024/04/26 00:14:19;;;;;;;5.70;5.10;;;;;;;9.33;81.88;92822.00;569111;26;846;-73
2024/04/26 00:14:35;;;;;;;6.18;5.47;;;;;;;9.33;81.91;92824.00;568967;26;813;-73
2024/04/26 00:14:51;;;;;;;6.93;6.10;;;;;;;9.33;81.77;92822.00;569056;26;866;-72
2024/04/26 00:15:07;;;;;;;6.55;5.75;;;;;;;9.33;81.96;92821.25;569034;26;838;-73
2024/04/26 00:15:22;;;;;;;6.03;5.23;;;;;;;9.35;81.88;92824.19;569135;26;814;-72
2024/04/26 00:15:38;;;;;;;5.80;5.18;;;;;;;9.34;81.80;92817.19;569098;26;921;-72
2024/04/26 00:15:53;;;;;;;5.53;4.90;;;;;;;9.35;81.74;92824.19;568919;26;932;-73
2024/04/26 00:16:09;;;;;;;5.60;4.80;;;;;;;9.34;81.53;92822.72;568984;26;840;-73
2024/04/26 00:16:24;;;;;;;6.27;5.17;;;;;;;9.34;81.88;92819.94;569076;26;842;-73
2024/04/26 00:16:40;;;;;;;6.55;5.50;;;;;;;9.33;81.63;92813.00;569081;26;817;-73
2024/04/26 00:16:56;;;;;;;6.18;5.57;;;;;;;9.33;81.54;92821.25;568892;26;885;-73
2024/04/26 00:17:11;;;;;;;6.10;5.50;;;;;;;9.27;81.56;92815.94;569003;26;992;-72
2024/04/26 00:17:27;;;;;;;5.70;5.10;;;;;;;9.30;81.54;92816.84;569044;26;809;-72
2024/04/26 00:17:44;;;;;;;5.73;5.20;;;;;;;9.29;81.73;92820.91;569040;26;818;-72
2024/04/26 00:18:00;;;;;;;6.00;5.32;;;;;;;9.29;81.55;92821.63;569017;26;846;-73
2024/04/26 00:18:15;;;;;;;5.70;4.87;;;;;;;9.30;81.71;92822.34;569099;26;786;-73
2024/04/26 00:18:31;;;;;;;5.57;4.85;;;;;;;9.31;81.81;92823.84;569141;26;778;-73
2024/04/26 00:18:47;;;;;;;5.93;4.93;;;;;;;9.30;81.70;92825.84;569115;26;858;-72
2024/04/26 00:19:02;;;;;;;6.03;5.20;;;;;;;9.30;81.89;92825.84;569080;26;798;-73
2024/04/26 00:19:17;;;;;;;5.73;4.90;;;;;;;9.28;81.78;92820.16;569118;26;921;-73
2024/04/26 00:19:33;;;;;;;6.40;5.03;;;;;;;9.28;81.96;92819.44;569026;26;841;-72
2024/04/26 00:19:48;;;;;;;6.70;5.67;;;;;;;9.28;81.94;92822.91;569136;26;978;-73
2024/04/26 00:20:04;;;;;;;6.20;5.60;;;;;;;9.29;nan;92826.41;568889;26;786;-73
2024/04/26 00:20:20;;;;;;;5.65;5.10;;;;;;;9.28;81.56;92820.16;569209;26;830;-73
2024/04/26 00:20:35;;;;;;;6.10;5.17;;;;;;;9.27;81.85;92820.72;568947;26;906;-72
2024/04/26 00:20:50;;;;;;;6.20;5.30;;;;;;;9.27;81.86;92823.47;569086;26;880;-73
2024/04/26 00:21:06;;;;;;;5.88;5.28;;;;;;;9.26;81.80;92824.75;569035;26;814;-73
2024/04/26 00:21:21;;;;;;;6.07;5.43;;;;;;;9.26;81.82;92819.25;568874;26;901;-73
2024/04/26 00:21:43;;;;;;;5.80;5.20;;;;;;;9.13;81.91;92806.44;569045;26;798;-73
2024/04/26 00:21:58;;;;;;;7.43;5.38;;;;;;;9.23;82.02;92818.34;568891;26;1836;-73
2024/04/26 00:22:13;;;;;;;6.67;5.10;;;;;;;9.26;81.83;92822.00;568956;26;1366;-72
2024/04/26 00:22:29;;;;;;;4.97;4.47;;;;;;;9.25;81.79;92818.50;569051;26;873;-73
2024/04/26 00:22:44;;;;;;;4.63;4.20;;;;;;;9.23;81.73;92817.59;568861;26;901;-72
2024/04/26 00:23:00;;;;;;;5.25;4.75;;;;;;;9.20;81.63;92829.75;569104;26;833;-73
2024/04/26 00:23:15;;;;;;;5.30;4.80;;;;;;;9.18;81.66;92831.00;569112;26;893;-72
2024/04/26 00:23:31;;;;;;;4.77;4.27;;;;;;;9.18;81.68;92829.56;569079;26;948;-72
2024/04/26 00:23:46;;;;;;;5.40;4.85;;;;;;;9.18;81.89;92829.56;569030;26;811;-72
2024/04/26 00:24:02;;;;;;;5.55;4.90;;;;;;;9.16;82.07;92830.09;568989;26;946;-72
2024/04/26 00:24:18;;;;;;;5.10;4.53;;;;;;;9.17;81.79;92823.31;569032;26;814;-73
2024/04/26 00:24:34;;;;;;;5.40;4.72;;;;;;;9.17;81.68;92831.56;568961;26;877;-72
2024/04/26 00:24:50;;;;;;;6.10;5.05;;;;;;;8.94;81.80;92804.06;569060;26;967;-72
2024/04/26 00:25:05;;;;;;;5.85;5.25;;;;;;;9.18;81.74;92829.56;569015;26;876;-73
2024/04/26 00:25:21;;;;;;;5.38;4.88;;;;;;;9.18;81.73;92826.81;568989;26;1041;-72
2024/04/26 00:25:37;;;;;;;5.20;4.70;;;;;;;9.16;81.79;92828.09;568903;26;901;-72
2024/04/26 00:25:52;;;;;;;5.67;5.07;;;;;;;9.15;81.68;92829.38;568996;26;810;-73
2024/04/26 00:26:09;;;;;;;5.50;4.93;;;;;;;9.15;81.66;92828.66;569117;26;821;-73
2024/04/26 00:26:24;;;;;;;5.05;4.55;;;;;;;9.15;81.76;92829.38;568965;26;838;-73
2024/04/26 00:26:40;;;;;;;5.03;4.53;;;;;;;9.14;81.49;92830.66;569114;26;841;-72
2024/04/26 00:26:55;;;;;;;5.28;4.70;;;;;;;9.14;81.85;92833.41;568897;26;806;-73
2024/04/26 00:27:12;;;;;;;5.87;5.13;;;;;;;9.15;81.80;92832.13;569116;26;802;-73
2024/04/26 00:27:27;;;;;;;5.35;4.85;;;;;;;9.15;81.66;92837.66;569003;26;822;-72
2024/04/26 00:27:45;;;;;;;5.17;4.67;;;;;;;9.15;81.37;92832.13;569013;26;810;-73
2024/04/26 00:28:01;;;;;;;5.05;4.55;;;;;;;9.16;81.42;92824.59;569013;26;992;-73
2024/04/26 00:28:16;;;;;;;4.97;4.57;;;;;;;9.16;81.51;92832.84;568975;26;864;-73
2024/04/26 00:28:32;;;;;;;5.40;4.90;;;;;;;9.18;81.26;92833.06;569002;26;996;-73
2024/04/26 00:28:47;;;;;;;5.63;4.93;;;;;;;9.20;81.53;92832.50;569042;26;782;-73
2024/04/26 00:29:03;;;;;;;5.43;4.73;;;;;;;9.18;81.22;92829.56;568982;26;850;-73
2024/04/26 00:29:18;;;;;;;5.10;4.50;;;;;;;9.13;81.31;92831.22;569053;26;909;-73
2024/04/26 00:29:34;;;;;;;4.83;4.43;;;;;;;9.16;81.69;92838.34;568930;26;924;-73
2024/04/26 00:29:49;;;;;;;5.30;4.80;;;;;;;9.15;81.28;92834.16;569090;26;798;-73
2024/04/26 00:30:05;;;;;;;5.63;5.07;;;;;;;9.15;81.48;92828.66;568991;26;822;-73
2024/04/26 00:30:20;;;;;;;5.32;4.82;;;;;;;9.15;81.47;92837.66;568962;26;1037;-73
2024/04/26 00:30:36;;;;;;;6.22;5.07;;;;;;;9.15;81.49;92839.66;568998;26;850;-73
2024/04/26 00:30:51;;;;;;;6.13;5.17;;;;;;;9.14;81.48;92833.41;569029;26;932;-73
2024/04/26 00:31:07;;;;;;;5.57;4.97;;;;;;;9.13;81.58;92837.47;568998;26;831;-73
2024/04/26 00:31:22;;;;;;;5.22;4.60;;;;;;;9.13;81.68;92837.47;568998;26;865;-71
2024/04/26 00:31:38;;;;;;;5.03;4.53;;;;;;;9.10;81.46;92835.81;568942;26;861;-72
2024/04/26 00:31:53;;;;;;;5.13;4.63;;;;;;;9.13;81.68;92839.47;568997;26;837;-72
2024/04/26 00:32:09;;;;;;;5.53;4.90;;;;;;;9.13;81.56;92834.72;569060;26;798;-72
2024/04/26 00:32:24;;;;;;;5.50;4.88;;;;;;;9.13;81.64;92828.47;568920;26;790;-72
2024/04/26 00:32:39;;;;;;;5.50;4.90;;;;;;;9.13;81.51;92845.00;569076;26;807;-72
2024/04/26 00:32:55;;;;;;;5.78;5.18;;;;;;;9.13;81.52;92831.22;568964;26;928;-72
2024/04/26 00:33:10;;;;;;;5.53;5.00;;;;;;;9.13;81.78;92842.97;569173;26;786;-72
2024/04/26 00:33:26;;;;;;;5.53;4.97;;;;;;;9.15;81.77;92839.66;568977;26;960;-72
2024/04/26 00:33:41;;;;;;;5.32;4.82;;;;;;;9.15;81.71;92840.41;569157;26;790;-72
2024/04/26 00:33:57;;;;;;;4.93;4.53;;;;;;;9.15;81.64;92840.41;568882;26;814;-72
2024/04/26 00:34:12;;;;;;;5.30;4.80;;;;;;;9.14;81.67;92833.41;569038;26;956;-72
2024/04/26 00:34:28;;;;;;;6.53;5.13;;;;;;;9.11;81.50;92837.28;569049;26;909;-72
2024/04/26 00:34:43;;;;;;;6.75;5.53;;;;;;;9.10;81.37;92838.56;568971;26;833;-72
2024/04/26 00:34:59;;;;;;;6.27;5.60;;;;;;;9.10;81.02;92841.31;569071;26;952;-71
2024/04/26 00:35:14;;;;;;;5.75;5.13;;;;;;;9.10;81.15;92840.59;568953;26;838;-71
2024/04/26 00:35:30;;;;;;;5.57;4.90;;;;;;;9.09;81.21;92842.63;569066;26;889;-71
2024/04/26 00:35:46;;;;;;;5.53;4.68;;;;;;;9.07;81.07;92842.41;568975;26;798;-71
2024/04/26 00:36:01;;;;;;;4.97;4.47;;;;;;;9.06;81.05;92838.22;568984;26;897;-71
2024/04/26 00:36:17;;;;;;;5.07;4.57;;;;;;;9.03;80.78;92836.56;569052;26;790;-72
2024/04/26 00:36:32;;;;;;;5.28;4.65;;;;;;;9.03;81.14;92844.81;568900;26;961;-72
2024/04/26 00:36:47;;;;;;;4.97;4.47;;;;;;;9.04;80.85;92842.78;569049;26;916;-71
2024/04/26 00:37:03;;;;;;;5.23;4.73;;;;;;;9.03;81.07;92844.81;568917;26;787;-72
2024/04/26 00:37:18;;;;;;;5.38;4.88;;;;;;;9.03;80.87;92844.81;569033;26;949;-72
2024/04/26 00:37:34;;;;;;;5.67;5.10;;;;;;;9.04;81.17;92845.56;568964;26;770;-72
2024/04/26 00:37:49;;;;;;;5.53;5.00;;;;;;;9.05;81.13;92842.25;569112;26;806;-71
2024/04/26 00:38:05;;;;;;;4.80;4.40;;;;;;;9.04;81.08;92842.78;568875;26;869;-72
2024/04/26 00:38:21;;;;;;;4.77;4.23;;;;;;;9.05;81.07;92844.28;569063;26;802;-71
2024/04/26 00:38:37;;;;;;;5.25;4.60;;;;;;;9.07;81.03;92841.69;569071;26;862;-72
2024/04/26 00:38:52;;;;;;;5.20;4.70;;;;;;;9.07;81.19;92847.22;568995;26;837;-72
2024/04/26 00:39:08;;;;;;;5.60;5.00;;;;;;;9.07;80.97;92836.19;569028;26;810;-72
2024/04/26 00:39:23;;;;;;;5.15;4.65;;;;;;;9.03;80.97;92836.56;568896;26;834;-71
2024/04/26 00:39:39;;;;;;;4.70;4.30;;;;;;;9.03;80.94;92841.34;569076;26;878;-72
2024/04/26 00:39:55;;;;;;;4.57;4.18;;;;;;;8.98;80.93;92832.00;568891;26;912;-72
2024/04/26 00:40:10;;;;;;;4.80;4.07;;;;;;;8.88;81.03;92816.59;569117;26;857;-72
2024/04/26 00:40:29;;;;;;;5.13;4.38;;;;;;;9.02;80.98;92835.09;568913;26;929;-72
2024/04/26 00:40:44;;;;;;;5.20;4.50;;;;;;;9.04;81.00;92842.78;568881;26;866;-72
2024/04/26 00:41:00;;;;;;;5.03;4.50;;;;;;;9.01;81.11;92833.63;569018;26;893;-72
2024/04/26 00:41:15;;;;;;;4.80;4.37;;;;;;;9.01;81.15;92839.13;569159;26;822;-72
2024/04/26 00:41:31;;;;;;;4.95;4.45;;;;;;;9.01;81.11;92833.63;568628;26;938;-72
2024/04/26 00:41:46;;;;;;;5.67;4.70;;;;;;;9.00;81.14;92837.69;564424;26;790;-72
2024/04/26 00:42:02;;;;;;;5.32;4.60;;;;;;;9.00;81.09;92829.41;564747;26;1853;-72
2024/04/26 00:42:18;;;;;;;5.25;4.75;;;;;;;9.00;81.14;92834.94;565011;26;961;-72
2024/04/26 00:42:33;;;;;;;5.40;4.87;;;;;;;8.99;81.22;92835.47;565017;26;820;-72
2024/04/26 00:42:49;;;;;;;5.50;4.90;;;;;;;8.98;81.08;92832.00;565112;26;909;-72
2024/04/26 00:43:04;;;;;;;5.53;4.90;;;;;;;8.97;81.02;92841.53;564977;26;973;-72
2024/04/26 00:43:19;;;;;;;5.10;4.60;;;;;;;8.97;81.10;92836.00;565085;26;827;-72
2024/04/26 00:43:35;;;;;;;5.00;4.50;;;;;;;8.97;81.04;92833.25;565595;26;829;-72
2024/04/26 00:44:14;;;;;;;4.90;4.40;;;;;;;8.94;80.96;92842.63;569014;26;814;-72
2024/04/26 00:44:30;;;;;;;5.22;4.72;;;;;;;8.93;81.15;92840.44;549968;26;1235;-73
2024/04/26 00:44:45;;;;;;;5.33;4.83;;;;;;;8.93;81.27;92843.91;562125;26;1447;-71
2024/04/26 00:45:01;;;;;;;5.50;4.70;;;;;;;8.92;81.35;92836.94;564862;26;1246;-73
2024/04/26 00:45:16;;;;;;;5.00;4.50;;;;;;;8.93;81.33;92841.16;565053;26;897;-72
2024/04/26 00:45:32;;;;;;;5.10;4.60;;;;;;;8.93;81.22;92841.16;565041;26;862;-72
2024/04/26 00:45:47;;;;;;;5.43;4.87;;;;;;;8.93;81.22;92835.66;564941;26;895;-71
2024/04/26 00:46:03;;;;;;;5.30;4.80;;;;;;;8.95;81.23;92837.84;564999;26;790;-71
2024/04/26 00:46:19;;;;;;;5.30;4.80;;;;;;;8.95;81.08;92832.34;561821;26;949;-73
2024/04/26 00:46:34;;;;;;;5.00;4.50;;;;;;;8.95;80.88;92838.59;564814;26;925;-72
2024/04/26 00:46:50;;;;;;;5.10;4.60;;;;;;;8.94;81.12;92839.16;561280;26;834;-71
2024/04/26 00:47:06;;;;;;;5.22;4.72;;;;;;;8.94;80.89;92839.88;561235;26;889;-72
2024/04/26 00:47:22;;;;;;;5.10;4.60;;;;;;;8.95;80.82;92837.84;557498;26;911;-72
2024/04/26 00:47:38;;;;;;;5.30;4.80;;;;;;;8.94;80.88;92842.63;557423;26;910;-72
2024/04/26 00:47:53;;;;;;;6.70;5.00;;;;;;;8.93;81.02;92834.91;557486;26;922;-72
2024/04/26 00:48:08;;;;;;;6.30;4.90;;;;;;;8.90;80.95;92836.75;558602;26;806;-72
2024/04/26 00:48:24;;;;;;;5.17;4.67;;;;;;;8.91;80.83;92843.75;561238;26;830;-72
2024/04/26 00:48:39;;;;;;;5.30;4.80;;;;;;;8.91;80.96;92846.50;561319;26;860;-72
2024/04/26 00:48:55;;;;;;;5.53;5.03;;;;;;;8.91;80.83;92841.00;561218;26;818;-72
2024/04/26 00:49:10;;;;;;;5.33;4.83;;;;;;;8.81;80.96;92831.09;561799;26;940;-71
2024/04/26 00:49:26;;;;;;;5.28;4.78;;;;;;;8.93;81.03;92843.91;564945;26;782;-72
2024/04/26 00:49:45;;;;;;;5.33;4.83;;;;;;;8.92;81.08;92839.69;565694;26;802;-72
2024/04/26 00:50:01;;;;;;;5.30;4.68;;;;;;;8.93;81.10;92849.44;568933;26;833;-72
2024/04/26 00:50:17;;;;;;;6.60;4.67;;;;;;;8.92;80.94;92850.00;564992;26;932;-72
2024/04/26 00:50:33;;;;;;;6.28;4.90;;;;;;;8.93;81.03;92840.44;564980;26;937;-72
2024/04/26 00:50:49;;;;;;;5.22;4.72;;;;;;;8.92;80.96;92844.47;565047;26;1214;-71
2024/04/26 00:51:05;;;;;;;5.22;4.72;;;;;;;8.93;80.81;92845.94;564947;26;1053;-72
2024/04/26 00:51:20;;;;;;;6.00;4.70;;;;;;;8.92;80.91;92844.47;565064;26;798;-72
2024/04/26 00:51:36;;;;;;;5.78;4.60;;;;;;;8.94;80.91;92850.88;561168;26;925;-72
2024/04/26 00:51:52;;;;;;;5.10;4.60;;;;;;;8.94;80.71;92848.13;560983;26;1231;-72
2024/04/26 00:52:07;;;;;;;5.07;4.57;;;;;;;8.95;80.86;92846.13;558725;26;1075;-72
2024/04/26 00:52:23;;;;;;;5.10;4.60;;;;;;;8.94;80.76;92844.66;557583;26;787;-72
2024/04/26 00:52:38;;;;;;;5.73;4.97;;;;;;;8.91;81.07;92841.00;557547;26;807;-72
2024/04/26 00:52:54;;;;;;;5.97;5.05;;;;;;;8.94;80.76;92852.91;557485;26;882;-72
2024/04/26 00:53:10;;;;;;;5.63;4.88;;;;;;;8.95;80.90;92848.88;553816;26;866;-72
2024/04/26 00:53:25;;;;;;;5.53;4.77;;;;;;;8.95;80.86;92855.09;554774;26;819;-72
2024/04/26 00:53:41;;;;;;;4.93;4.38;;;;;;;8.94;80.82;92847.41;557581;26;826;-72
2024/04/26 00:53:56;;;;;;;5.23;4.73;;;;;;;8.94;81.00;92848.13;558291;26;1064;-72
2024/04/26 00:54:20;;;;;;;5.22;4.72;;;;;;;8.96;80.92;92847.59;558327;26;791;-72
2024/04/26 00:54:35;;;;;;;4.93;4.43;;;;;;;8.96;80.90;92848.34;557365;26;905;-72
2024/04/26 00:54:51;;;;;;;4.53;4.13;;;;;;;8.96;80.83;92851.09;557524;26;1015;-71
2024/04/26 00:55:07;;;;;;;4.88;4.40;;;;;;;8.97;80.92;92847.03;560326;26;921;-72
2024/04/26 00:55:23;;;;;;;5.55;4.80;;;;;;;8.98;80.91;92851.25;557602;26;897;-71
2024/04/26 00:55:39;;;;;;;5.90;4.50;;;;;;;8.98;81.07;92851.25;557624;26;875;-72
2024/04/26 00:55:55;;;;;;;5.63;4.70;;;;;;;8.96;80.96;92851.09;557417;26;869;-72
2024/04/26 00:56:10;;;;;;;5.10;4.50;;;;;;;8.97;80.98;92852.53;560562;26;927;-72
2024/04/26 00:56:26;;;;;;;5.00;4.50;;;;;;;8.96;81.08;92855.84;562628;26;855;-72
2024/04/26 00:56:42;;;;;;;5.10;4.60;;;;;;;8.96;80.88;92853.84;564861;26;909;-72
2024/04/26 00:56:59;;;;;;;5.27;4.63;;;;;;;8.96;81.16;92853.84;564830;26;979;-72
2024/04/26 00:57:15;;;;;;;5.68;5.07;;;;;;;8.96;80.99;92851.09;566491;26;897;-72
2024/04/26 00:57:31;;;;;;;5.17;4.63;;;;;;;8.98;81.24;92853.28;568890;26;949;-72
2024/04/26 00:57:46;;;;;;;5.43;4.47;;;;;;;8.97;81.17;92849.78;564961;26;934;-71
2024/04/26 00:58:02;;;;;;;5.18;4.53;;;;;;;8.99;80.90;92849.97;565042;26;932;-72
2024/04/26 00:58:17;;;;;;;4.87;4.37;;;;;;;9.00;81.09;92847.94;565010;26;782;-72
2024/04/26 00:58:34;;;;;;;5.35;4.82;;;;;;;9.01;81.04;92852.16;564970;26;822;-72
2024/04/26 00:58:50;;;;;;;5.55;5.05;;;;;;;8.97;80.94;92849.78;565058;26;862;-72
2024/04/26 00:59:07;;;;;;;5.18;4.68;;;;;;;8.87;81.02;92824.13;561128;26;921;-72
2024/04/26 00:59:22;;;;;;;5.00;4.50;;;;;;;9.04;81.18;92848.31;561228;26;842;-72
2024/04/26 00:59:38;;;;;;;5.17;4.67;;;;;;;9.04;81.18;92851.81;562574;26;810;-72
2024/04/26 00:59:53;;;;;;;5.00;4.50;;;;;;;9.05;80.75;92853.25;564936;26;806;-72
2024/04/26 01:00:09;;;;;;;5.00;4.50;;;;;;;9.01;81.21;92841.88;564911;26;853;-72
2024/04/26 01:00:25;;;;;;;4.97;4.47;;;;;;;9.04;81.02;92846.28;561159;26;834;-72
2024/04/26 01:00:41;;;;;;;4.60;4.20;;;;;;;9.03;80.86;92844.09;561265;26;814;-72
2024/04/26 01:00:57;;;;;;;5.07;4.07;;;;;;;9.05;80.96;92850.50;562344;26;862;-72
2024/04/26 01:01:13;;;;;;;5.43;4.30;;;;;;;9.01;80.97;92843.91;564889;26;962;-72
2024/04/26 01:01:28;;;;;;;5.47;4.60;;;;;;;9.05;81.01;92845.00;564857;26;925;-72
2024/04/26 01:01:44;;;;;;;6.00;4.67;;;;;;;9.06;81.04;92846.47;564827;26;834;-72
2024/04/26 01:01:59;;;;;;;5.30;4.80;;;;;;;9.07;80.82;92845.16;564835;26;1885;-72
2024/04/26 01:02:16;;;;;;;5.37;4.87;;;;;;;9.08;81.06;92846.66;565889;26;993;-72
2024/04/26 01:02:32;;;;;;;5.20;4.70;;;;;;;9.09;80.87;92852.91;564961;26;861;-72
2024/04/26 01:02:48;;;;;;;5.00;4.50;;;;;;;9.08;80.82;92848.66;564995;26;815;-72
2024/04/26 01:03:04;;;;;;;5.03;4.50;;;;;;;9.08;80.56;92852.16;564898;26;889;-72
2024/04/26 01:03:19;;;;;;;4.60;4.20;;;;;;;9.08;80.76;92852.16;561319;26;834;-72
2024/04/26 01:03:35;;;;;;;4.72;4.20;;;;;;;9.08;80.60;92852.16;561137;26;913;-72
2024/04/26 01:03:50;;;;;;;5.63;4.23;;;;;;;9.10;80.62;92855.09;561272;26;790;-72
2024/04/26 01:04:06;;;;;;;5.03;4.13;;;;;;;9.10;80.78;92852.34;561273;26;842;-72
2024/04/26 01:04:21;;;;;;;4.45;4.05;;;;;;;9.10;80.53;92846.81;562042;26;958;-72
2024/04/26 01:04:37;;;;;;;4.90;4.30;;;;;;;9.11;80.25;92847.56;564947;26;790;-72
2024/04/26 01:04:52;;;;;;;5.43;4.40;;;;;;;9.11;80.20;92856.56;564916;26;1278;-72
2024/04/26 01:05:08;;;;;;;4.70;4.20;;;;;;;9.11;80.20;92851.06;565726;26;921;-73
2024/04/26 01:05:23;;;;;;;4.85;4.45;;;;;;;9.12;80.14;92854.53;568888;26;941;-72
2024/04/26 01:05:39;;;;;;;5.07;4.57;;;;;;;9.10;79.99;92849.56;568896;26;782;-72
2024/04/26 01:05:54;;;;;;;4.70;4.20;;;;;;;9.11;79.89;92847.56;568811;26;823;-72
2024/04/26 01:06:10;;;;;;;4.40;4.00;;;;;;;9.11;79.71;92847.56;568991;26;838;-72
2024/04/26 01:06:26;;;;;;;4.55;4.15;;;;;;;9.10;79.71;92849.56;564940;26;815;-72
2024/04/26 01:06:42;;;;;;;5.70;4.87;;;;;;;8.90;79.63;92825.75;564883;26;896;-72
2024/04/26 01:06:57;;;;;;;6.80;6.10;;;;;;;9.09;79.61;92850.88;564933;26;838;-71
2024/04/26 01:07:13;;;;;;;8.07;7.27;;;;;;;9.09;79.71;92852.91;564886;26;882;-71
2024/04/26 01:07:28;;;;;;;8.00;7.18;;;;;;;9.07;79.71;92852.72;564955;26;849;-72
2024/04/26 01:07:44;;;;;;;7.57;6.50;;;;;;;9.07;79.55;92853.44;564934;26;827;-72
2024/04/26 01:07:59;;;;;;;8.17;6.83;;;;;;;9.07;79.50;92850.69;564983;26;933;-73
2024/04/26 01:08:15;;;;;;;7.80;6.95;;;;;;;9.07;79.62;92858.94;565797;26;940;-71
2024/04/26 01:08:30;;;;;;;7.17;6.47;;;;;;;9.08;79.53;92854.91;568889;26;846;-72
2024/04/26 01:08:45;;;;;;;6.68;6.07;;;;;;;9.07;79.55;92850.69;568965;26;905;-71
2024/04/26 01:09:01;;;;;;;6.73;6.13;;;;;;;9.07;79.52;92855.47;568908;26;905;-71
2024/04/26 01:09:18;;;;;;;7.35;6.18;;;;;;;9.05;79.63;92858.75;569004;26;928;-71
2024/04/26 01:09:33;;;;;;;6.82;5.50;;;;;;;9.06;79.61;92857.47;568978;26;877;-71
2024/04/26 01:09:50;;;;;;;5.90;5.30;;;;;;;9.06;79.67;92854.72;564901;26;811;-72
2024/04/26 01:10:05;;;;;;;6.40;5.35;;;;;;;9.07;79.65;92860.97;564881;26;968;-72
2024/04/26 01:10:21;;;;;;;6.07;5.43;;;;;;;9.06;79.71;92854.72;564922;26;905;-71
2024/04/26 01:10:39;;;;;;;5.97;5.35;;;;;;;9.07;79.47;92860.97;564958;26;821;-72
2024/04/26 01:10:54;;;;;;;6.15;5.25;;;;;;;9.06;79.61;92860.25;564904;26;897;-71
2024/04/26 01:11:13;;;;;;;5.85;5.30;;;;;;;9.06;79.69;92863.00;565015;26;810;-71
2024/04/26 01:11:28;;;;;;;5.72;5.22;;;;;;;9.06;79.48;92854.72;564851;26;1007;-72
2024/04/26 01:11:44;;;;;;;6.18;5.57;;;;;;;9.05;79.29;92853.25;567315;26;834;-72
2024/04/26 01:11:59;;;;;;;6.30;5.67;;;;;;;9.05;79.08;92853.25;568970;26;873;-72
2024/04/26 01:12:14;;;;;;;6.78;5.50;;;;;;;9.05;79.31;92855.28;568896;26;798;-72
2024/04/26 01:12:30;;;;;;;6.43;5.03;;;;;;;9.04;79.28;92859.31;568873;26;937;-72
2024/04/26 01:12:45;;;;;;;5.60;4.47;;;;;;;9.03;79.13;92855.81;568851;26;790;-71
2024/04/26 01:13:06;;;;;;;5.53;4.57;;;;;;;9.04;79.04;92857.31;568941;26;854;-72
2024/04/26 01:13:23;;;;;;;5.75;4.78;;;;;;;9.04;78.89;92862.06;568835;26;862;-72
2024/04/26 01:13:38;;;;;;;6.45;5.00;;;;;;;9.02;78.92;92854.38;569038;26;834;-72
2024/04/26 01:13:54;;;;;;;6.47;5.07;;;;;;;9.01;78.75;92852.91;568929;26;841;-72
2024/04/26 01:14:09;;;;;;;5.60;4.90;;;;;;;9.01;79.08;92863.91;569076;26;845;-72
2024/04/26 01:14:24;;;;;;;5.53;5.03;;;;;;;9.00;78.98;92856.94;568935;26;834;-71
2024/04/26 01:14:40;;;;;;;6.27;5.67;;;;;;;8.96;79.02;92858.59;568908;26;905;-71
2024/04/26 01:14:55;;;;;;;6.35;5.75;;;;;;;8.94;79.08;92859.13;568849;26;818;-72
2024/04/26 01:15:11;;;;;;;5.57;5.07;;;;;;;8.93;79.10;92854.94;569005;26;908;-72
2024/04/26 01:15:26;;;;;;;5.73;5.10;;;;;;;8.92;79.30;92856.19;568814;26;964;-71
2024/04/26 01:15:42;;;;;;;6.47;5.45;;;;;;;8.92;79.27;92856.19;568937;26;849;-71
2024/04/26 01:15:57;;;;;;;6.10;5.20;;;;;;;8.92;79.27;92855.50;568833;26;893;-71
2024/04/26 01:16:13;;;;;;;5.97;5.38;;;;;;;8.91;79.32;92859.53;568839;26;866;-72
2024/04/26 01:16:28;;;;;;;5.47;4.93;;;;;;;8.91;79.12;92857.50;568954;26;818;-72
2024/04/26 01:16:44;;;;;;;5.50;4.38;;;;;;;8.91;79.16;92856.75;568845;26;805;-71
2024/04/26 01:16:59;;;;;;;6.07;4.70;;;;;;;8.88;79.13;92853.09;569060;26;759;-72
2024/04/26 01:17:15;;;;;;;5.63;5.07;;;;;;;8.88;79.15;92857.88;568936;26;834;-71
2024/04/26 01:17:30;;;;;;;5.53;5.03;;;;;;;8.86;79.12;92858.41;568901;26;811;-71
2024/04/26 01:17:46;;;;;;;5.32;4.82;;;;;;;8.87;79.16;92862.66;568950;26;909;-72
2024/04/26 01:18:01;;;;;;;5.33;4.80;;;;;;;8.86;79.19;92850.16;568956;26;896;-72
2024/04/26 01:18:17;;;;;;;5.95;4.85;;;;;;;8.85;79.11;92856.97;568880;26;818;-72